Time;durP1;ratioP1;P1;durP2;ratioP2;P2;SDS_P1;SDS_P2;PMS_P1;PMS_P2;Temp;Humidity;BMP_temperature;BMP_pressure;BME280_temperature;BME280_humidity;BME280_pressure;Samples;Min_cycle;Max_cycle;Signal;HPM_P1;HPM_P2
2023/01/14 00:02:23;;;;;;;1.77;0.90;;;;;;;20.57;39.97;101112.28;5039739;28;20049;-70
2023/01/14 00:04:49;;;;;;;2.40;1.42;;;;;;;20.55;39.91;101114.28;5044572;28;20044;-70
2023/01/14 00:07:16;;;;;;;1.95;1.00;;;;;;;20.57;39.80;101116.75;5042294;28;20044;-70
2023/01/14 00:09:42;;;;;;;1.90;1.10;;;;;;;20.48;39.88;101119.47;5044525;28;20045;-70
2023/01/14 00:12:08;;;;;;;1.63;1.15;;;;;;;20.52;39.87;101122.56;5039651;28;20098;-70
2023/01/14 00:14:33;;;;;;;1.63;0.90;;;;;;;20.49;39.80;101118.47;5037519;28;20052;-70
2023/01/14 00:17:00;;;;;;;4.43;1.70;;;;;;;20.52;39.81;101118.09;5027589;28;20040;-70
2023/01/14 00:19:25;;;;;;;3.10;1.55;;;;;;;20.41;39.85;101121.16;5038301;28;20106;-70
2023/01/14 00:21:54;;;;;;;1.73;1.23;;;;;;;20.46;39.87;101118.78;5038770;28;20061;-70
2023/01/14 00:24:21;;;;;;;3.47;1.17;;;;;;;20.47;39.96;101117.00;5033282;28;20041;-70
2023/01/14 00:26:52;;;;;;;3.78;1.40;;;;;;;20.54;39.87;101117.09;5044337;28;20029;-70
2023/01/14 00:29:21;;;;;;;1.80;1.17;;;;;;;20.46;39.93;101117.97;5039135;28;20028;-70
2023/01/14 00:31:47;;;;;;;4.30;1.60;;;;;;;20.42;39.86;101111.38;5041893;28;20056;-70
2023/01/14 00:34:14;;;;;;;2.33;1.20;;;;;;;20.40;40.03;101106.25;5032224;28;20132;-71
2023/01/14 00:36:39;;;;;;;3.80;1.30;;;;;;;20.41;40.09;101115.03;5035314;28;20061;-70
2023/01/14 00:39:05;;;;;;;2.63;1.30;;;;;;;20.42;40.02;101111.38;5035270;28;20045;-70
2023/01/14 00:41:30;;;;;;;2.90;1.52;;;;;;;20.39;40.11;101107.25;5035291;28;20037;-70
2023/01/14 00:43:59;;;;;;;2.00;0.95;;;;;;;20.39;40.12;101117.00;5027862;28;20041;-70
2023/01/14 00:46:31;;;;;;;2.50;1.60;;;;;;;20.45;39.96;101119.78;5040482;28;20040;-70
2023/01/14 00:48:58;;;;;;;2.13;1.35;;;;;;;20.40;40.16;101118.66;5038922;28;20028;-69
2023/01/14 00:51:25;;;;;;;2.67;1.35;;;;;;;20.43;40.09;101127.06;5035313;28;20645;-69
2023/01/14 00:53:51;;;;;;;2.50;1.25;;;;;;;20.37;40.26;101124.28;5034177;28;20522;-69
2023/01/14 00:56:20;;;;;;;3.58;1.75;;;;;;;20.40;40.00;101132.69;5036429;28;20068;-69
2023/01/14 00:58:46;;;;;;;5.90;1.98;;;;;;;20.39;40.13;101136.34;5036387;28;20702;-70
2023/01/14 01:01:12;;;;;;;2.67;1.05;;;;;;;20.32;40.25;101129.28;5026382;28;20060;-70
2023/01/14 01:03:41;;;;;;;3.10;1.13;;;;;;;20.39;40.04;101132.88;5042251;28;20094;-70
2023/01/14 01:06:06;;;;;;;3.85;1.50;;;;;;;20.41;40.14;101141.47;5042264;28;20093;-70
2023/01/14 01:08:32;;;;;;;3.88;1.50;;;;;;;20.43;40.13;101145.59;5031877;28;20046;-70
2023/01/14 01:10:58;;;;;;;4.20;1.70;;;;;;;20.35;40.00;101150.91;5030923;28;20123;-70
2023/01/14 01:13:24;;;;;;;2.90;1.40;;;;;;;20.38;40.01;101155.03;5035557;28;20045;-70
2023/01/14 01:15:51;;;;;;;4.63;1.40;;;;;;;20.37;40.27;101153.38;5043010;28;20039;-70
2023/01/14 01:18:17;;;;;;;2.42;1.23;;;;;;;20.31;40.31;101147.00;5045738;28;20050;-70
2023/01/14 01:20:43;;;;;;;2.53;1.30;;;;;;;20.36;40.30;101155.22;5041546;28;20082;-69
2023/01/14 01:23:13;;;;;;;4.28;1.52;;;;;;;20.34;40.05;101156.38;5039324;28;20128;-69
2023/01/14 01:25:38;;;;;;;3.50;1.20;;;;;;;20.34;40.28;101159.03;5041482;28;20083;-71
2023/01/14 01:28:05;;;;;;;5.53;1.92;;;;;;;20.36;40.18;101172.91;5042409;28;20104;-70
2023/01/14 01:30:30;;;;;;;2.33;1.20;;;;;;;20.35;40.29;101172.09;5043512;28;20037;-70
2023/01/14 01:32:56;;;;;;;3.10;1.40;;;;;;;20.37;40.19;101159.50;5045957;28;20048;-70
2023/01/14 01:35:23;;;;;;;2.10;1.20;;;;;;;20.40;40.01;101163.63;5048856;28;20049;-70
2023/01/14 01:37:50;;;;;;;2.58;1.27;;;;;;;20.42;40.12;101165.13;5037926;28;20247;-70
2023/01/14 01:40:15;;;;;;;2.60;1.35;;;;;;;20.31;40.33;101170.78;5032821;28;20112;-70
2023/01/14 01:43:02;;;;;;;2.50;1.42;;;;;;;20.30;40.20;101166.50;5039350;28;20040;-70
2023/01/14 01:45:47;;;;;;;4.22;1.52;;;;;;;20.25;40.40;101152.94;5031364;28;20041;-70
2023/01/14 01:48:17;;;;;;;2.47;1.30;;;;;;;20.27;40.34;101158.06;5031409;28;20029;-70
2023/01/14 01:50:47;;;;;;;3.72;1.42;;;;;;;20.31;40.40;101168.16;5030213;28;20041;-70
2023/01/14 01:53:14;;;;;;;2.67;1.85;;;;;;;20.19;40.52;101161.59;5035699;28;20388;-70
2023/01/14 01:55:42;;;;;;;4.30;1.55;;;;;;;20.20;40.49;101164.06;5039917;28;20041;-69
2023/01/14 01:58:09;;;;;;;3.40;1.33;;;;;;;20.26;40.36;101167.00;5033851;28;20036;-70
2023/01/14 02:00:35;;;;;;;1.90;1.02;;;;;;;20.26;40.32;101161.72;5031610;28;20424;-70
2023/01/14 02:03:06;;;;;;;3.85;1.50;;;;;;;20.22;40.49;101163.88;5044161;28;20111;-70
2023/01/14 02:05:31;;;;;;;4.28;1.50;;;;;;;20.25;40.40;101166.19;5050954;28;20441;-70
2023/01/14 02:08:00;;;;;;;3.90;1.60;;;;;;;20.23;40.36;101181.41;5043720;28;20072;-70
2023/01/14 02:10:41;;;;;;;3.17;1.50;;;;;;;20.16;40.47;101175.16;5039461;28;20044;-70
2023/01/14 02:13:36;;;;;;;2.85;1.52;;;;;;;20.24;40.51;101180.41;5041813;28;20044;-70
2023/01/14 02:16:31;;;;;;;2.80;1.25;;;;;;;20.23;40.41;101179.56;5026397;28;20044;-70
2023/01/14 02:19:17;;;;;;;3.20;1.60;;;;;;;20.15;40.49;101168.22;5044106;28;20115;-70
2023/01/14 02:22:05;;;;;;;2.88;1.40;;;;;;;20.23;40.42;101186.69;5034959;28;20395;-70
2023/01/14 02:24:50;;;;;;;2.03;1.17;;;;;;;20.22;40.27;101192.97;5043044;28;20024;-70
2023/01/14 02:27:34;;;;;;;4.85;1.50;;;;;;;20.17;40.56;101182.94;5045874;28;20079;-71
2023/01/14 02:30:24;;;;;;;2.05;1.17;;;;;;;20.24;40.43;101188.34;5040166;28;20064;-70
2023/01/14 02:32:58;;;;;;;4.63;1.63;;;;;;;20.30;40.22;101176.25;5042075;28;20037;-71
2023/01/14 02:36:11;;;;;;;2.83;1.13;;;;;;;20.21;40.48;101171.00;5043880;28;20129;-70
2023/01/14 02:39:03;;;;;;;5.00;1.77;;;;;;;20.23;40.51;101173.47;5027510;28;20064;-70
2023/01/14 02:44:50;;;;;;;3.90;1.38;;;;;;;20.19;40.47;101167.72;5041119;28;20124;-70
2023/01/14 02:47:23;;;;;;;3.90;1.40;;;;;;;20.19;40.38;101164.25;5032353;28;20045;-70
2023/01/14 02:49:52;;;;;;;3.65;1.58;;;;;;;20.14;40.45;101156.84;5049664;28;20044;-70
2023/01/14 02:52:19;;;;;;;2.63;1.70;;;;;;;20.18;40.37;101152.84;5037385;28;20059;-70
2023/01/14 02:54:56;;;;;;;4.00;1.48;;;;;;;20.12;40.57;101153.53;5051346;28;20047;-70
2023/01/14 02:57:49;;;;;;;3.25;1.60;;;;;;;20.16;40.52;101143.44;5036266;28;20127;-70
2023/01/14 03:01:00;;;;;;;3.63;1.40;;;;;;;20.16;40.45;101148.72;5038713;28;20033;-70
2023/01/14 03:03:34;;;;;;;2.88;1.13;;;;;;;20.18;40.53;101157.31;5037884;28;20180;-70
2023/01/14 03:06:29;;;;;;;3.60;1.33;;;;;;;20.16;40.46;101140.78;5042106;28;20482;-70
2023/01/14 03:09:37;;;;;;;4.43;1.65;;;;;;;20.11;40.73;101146.63;5037856;28;20852;-70
2023/01/14 03:12:24;;;;;;;3.75;1.80;;;;;;;20.19;40.61;101138.63;5022644;28;20056;-70
2023/01/14 03:15:05;;;;;;;3.55;1.38;;;;;;;20.08;40.68;101140.81;5038006;28;20032;-70
2023/01/14 03:17:36;;;;;;;3.08;1.63;;;;;;;20.15;40.54;101139.97;5034314;28;20036;-70
2023/01/14 03:20:16;;;;;;;4.18;1.50;;;;;;;20.05;40.79;101130.59;5042865;28;22125;-70
2023/01/14 03:22:42;;;;;;;3.72;2.08;;;;;;;20.09;40.56;101140.66;5043350;28;20037;-69
2023/01/14 03:25:11;;;;;;;3.92;1.55;;;;;;;20.18;40.43;101142.25;5033420;28;20084;-69
2023/01/14 03:27:39;;;;;;;;;;;;;;;20.16;40.34;101136.31;5037882;28;20044;-68
2023/01/14 03:30:13;;;;;;;3.88;1.38;;;;;;;20.12;40.51;101137.69;5024120;28;20714;-69
2023/01/14 03:32:42;;;;;;;3.55;1.90;;;;;;;20.15;40.39;101139.16;5042441;28;20138;-70
2023/01/14 03:35:23;;;;;;;5.90;1.90;;;;;;;20.06;40.50;101126.97;5051877;28;20055;-70
2023/01/14 03:37:57;;;;;;;3.83;2.03;;;;;;;20.06;40.57;101130.44;5036829;28;20064;-71
2023/01/14 03:40:25;;;;;;;3.90;1.45;;;;;;;20.04;40.60;101127.13;5050983;28;20049;-70
2023/01/14 03:42:57;;;;;;;2.63;1.60;;;;;;;20.06;40.59;101121.66;5043765;28;20037;-69
2023/01/14 03:45:35;;;;;;;4.70;1.30;;;;;;;20.07;40.65;101104.81;5037991;28;20041;-70
2023/01/14 03:48:01;;;;;;;3.70;1.63;;;;;;;20.01;40.69;101102.88;5050640;28;20051;-71
2023/01/14 03:50:45;;;;;;;4.20;1.70;;;;;;;20.04;40.69;101100.69;5044375;28;20498;-71
2023/01/14 03:53:21;;;;;;;3.35;1.08;;;;;;;20.08;40.42;101109.09;5037809;28;21205;-71
2023/01/14 03:55:49;;;;;;;3.17;1.27;;;;;;;20.03;40.57;101117.56;5039808;28;20047;-70
2023/01/14 03:58:37;;;;;;;4.28;1.67;;;;;;;19.98;40.67;101116.44;5029617;28;20460;-70
2023/01/14 04:01:11;;;;;;;3.47;1.65;;;;;;;19.99;40.64;101113.63;5037086;28;20048;-69
2023/01/14 04:03:37;;;;;;;3.63;1.55;;;;;;;20.03;40.70;101107.00;5040359;28;20095;-69
2023/01/14 04:06:03;;;;;;;5.28;1.58;;;;;;;20.04;40.60;101105.16;5028243;28;20067;-69
2023/01/14 04:08:29;;;;;;;3.63;1.50;;;;;;;20.00;40.58;101112.63;5035369;28;20048;-70
2023/01/14 04:10:54;;;;;;;2.83;1.30;;;;;;;19.98;40.56;101111.97;5039591;28;20564;-70
2023/01/14 04:16:04;;;;;;;4.22;1.45;;;;;;;19.96;40.56;101107.88;5043685;28;20080;-70
2023/01/14 04:18:30;;;;;;;4.75;1.73;;;;;;;19.90;40.61;101106.72;5038826;28;20065;-70
2023/01/14 04:20:55;;;;;;;3.03;1.40;;;;;;;20.03;40.47;101122.84;5038910;28;20037;-70
2023/01/14 04:23:21;;;;;;;4.57;1.75;;;;;;;19.95;40.70;101122.09;5044964;28;20041;-70
2023/01/14 04:25:46;;;;;;;3.03;1.60;;;;;;;19.91;40.77;101125.03;5042928;28;20025;-70
2023/01/14 04:28:12;;;;;;;3.75;1.60;;;;;;;19.94;40.50;101113.31;5039937;28;20048;-70
2023/01/14 04:30:38;;;;;;;4.47;1.45;;;;;;;19.94;40.67;101102.75;5038380;28;20035;-70
2023/01/14 04:33:03;;;;;;;2.90;1.40;;;;;;;19.82;40.80;101097.03;5046027;28;21432;-70
2023/01/14 04:35:29;;;;;;;4.22;1.70;;;;;;;19.97;40.65;101115.63;5034412;28;20125;-70
2023/01/14 04:37:54;;;;;;;3.08;1.65;;;;;;;19.91;40.64;101100.44;5040360;28;20848;-70
2023/01/14 04:40:21;;;;;;;4.18;1.55;;;;;;;19.90;40.76;101085.56;5051708;28;20379;-70
2023/01/14 04:42:48;;;;;;;2.97;1.63;;;;;;;19.84;40.83;101087.09;5033175;28;20085;-70
2023/01/14 04:45:14;;;;;;;6.93;2.20;;;;;;;19.86;40.89;101079.00;5034058;28;20472;-69
2023/01/14 04:47:40;;;;;;;6.70;1.60;;;;;;;19.84;40.87;101075.72;5043051;28;20060;-70
2023/01/14 04:52:51;;;;;;;2.83;1.65;;;;;;;19.90;40.73;101069.72;5035271;28;20071;-70
2023/01/14 04:55:17;;;;;;;4.13;1.63;;;;;;;19.82;40.80;101065.31;5038502;28;20041;-70
2023/01/14 04:57:43;;;;;;;6.05;1.65;;;;;;;19.90;40.71;101062.63;5038970;28;20475;-69
2023/01/14 05:00:09;;;;;;;4.65;1.88;;;;;;;19.90;40.70;101065.25;5030345;28;20075;-70
2023/01/14 05:02:35;;;;;;;3.78;1.67;;;;;;;19.91;40.75;101066.06;5035312;28;20041;-70
2023/01/14 05:05:00;;;;;;;3.97;1.73;;;;;;;19.93;40.61;101074.69;5034275;28;20044;-70
2023/01/14 05:07:26;;;;;;;2.90;1.33;;;;;;;19.89;40.69;101066.25;5033036;28;20073;-70
2023/01/14 05:09:51;;;;;;;3.00;1.42;;;;;;;19.85;40.66;101051.75;5034321;28;20594;-70
2023/01/14 05:12:17;;;;;;;3.53;1.63;;;;;;;19.86;40.75;101065.78;5039299;28;20049;-70
2023/01/14 05:18:36;;;;;;;1.88;1.33;;;;;;;19.92;40.60;101051.88;5034958;28;20488;-70
2023/01/14 05:21:02;;;;;;;3.63;1.80;;;;;;;19.88;40.66;101045.28;5044538;28;20479;-70
2023/01/14 05:23:27;;;;;;;4.38;1.67;;;;;;;19.83;40.81;101037.88;5032778;28;20041;-70
2023/01/14 05:25:53;;;;;;;2.78;1.65;;;;;;;19.75;41.00;101022.09;5050988;28;20039;-70
2023/01/14 05:28:19;;;;;;;3.67;1.70;;;;;;;19.80;40.84;101026.84;5041626;28;20037;-70
2023/01/14 05:30:46;;;;;;;3.90;1.60;;;;;;;19.84;40.73;101010.47;5042841;28;20032;-70
2023/01/14 05:33:11;;;;;;;4.20;1.38;;;;;;;19.80;40.86;101005.72;5043309;28;20049;-70
2023/01/14 05:35:37;;;;;;;3.72;1.58;;;;;;;19.85;40.71;100995.44;5047625;28;20079;-70
2023/01/14 05:38:04;;;;;;;4.63;1.90;;;;;;;19.78;40.80;100983.94;5041250;28;20030;-70
2023/01/14 05:40:30;;;;;;;4.07;1.75;;;;;;;19.81;40.62;100994.16;5045665;28;20110;-70
2023/01/14 05:45:47;;;;;;;4.70;1.70;;;;;;;19.81;40.78;100984.41;5041517;28;20040;-70
2023/01/14 05:48:14;;;;;;;2.55;1.30;;;;;;;19.73;40.86;100976.50;5048585;28;20044;-70
2023/01/14 05:50:40;;;;;;;5.63;1.95;;;;;;;19.72;40.94;100980.16;5042881;28;20304;-69
2023/01/14 05:53:07;;;;;;;4.20;1.52;;;;;;;19.73;40.92;100980.97;5038831;28;20045;-69
2023/01/14 05:55:33;;;;;;;3.85;1.45;;;;;;;19.71;40.87;100969.75;5044186;28;20394;-69
2023/01/14 05:58:03;;;;;;;4.45;1.50;;;;;;;19.70;40.80;100963.66;5038962;28;20044;-69
2023/01/14 06:08:44;;;;;;;4.07;1.50;;;;;;;19.64;41.07;100953.78;5031062;28;20132;-69
2023/01/14 06:11:10;;;;;;;3.95;1.38;;;;;;;19.70;40.88;100939.06;5040900;28;20062;-69
2023/01/14 06:13:35;;;;;;;4.57;1.70;;;;;;;19.67;41.00;100934.13;5042050;28;20033;-69
2023/01/14 06:16:06;;;;;;;3.58;1.52;;;;;;;19.71;40.82;100930.13;5039875;28;20756;-70
2023/01/14 06:18:37;;;;;;;2.97;1.45;;;;;;;19.69;40.74;100924.19;5037392;28;20033;-70
2023/01/14 06:21:05;;;;;;;4.22;1.60;;;;;;;19.68;40.67;100926.03;5041608;28;20048;-70
2023/01/14 06:23:31;;;;;;;2.72;1.67;;;;;;;19.71;40.87;100922.19;5038199;28;20538;-69
2023/01/14 06:25:56;;;;;;;3.03;1.52;;;;;;;19.68;40.61;100914.63;5042703;28;20049;-69
2023/01/14 06:28:22;;;;;;;2.45;1.35;;;;;;;19.71;40.88;100909.00;5038144;28;20052;-69
2023/01/14 06:30:48;;;;;;;3.78;1.65;;;;;;;19.59;40.88;100905.97;5048927;28;20036;-69
2023/01/14 06:33:14;;;;;;;4.55;1.77;;;;;;;19.69;40.83;100895.97;5042067;28;20051;-70
2023/01/14 06:35:42;;;;;;;4.30;1.77;;;;;;;19.59;41.02;100890.94;5036221;28;20532;-69
2023/01/14 06:38:08;;;;;;;3.83;1.58;;;;;;;19.65;40.96;100878.81;5043050;28;20036;-69
2023/01/14 06:40:35;;;;;;;4.55;1.50;;;;;;;19.65;41.01;100881.47;5044947;28;20564;-70
2023/01/14 06:43:01;;;;;;;3.25;1.73;;;;;;;19.75;40.66;100868.84;5046595;28;20901;-69
2023/01/14 06:45:26;;;;;;;3.95;1.65;;;;;;;21.10;38.24;100858.91;5041262;28;20032;-69
2023/01/14 06:47:53;;;;;;;3.83;1.40;;;;;;;21.83;37.27;100849.03;5030835;28;20041;-69
2023/01/14 06:50:19;;;;;;;3.25;1.40;;;;;;;22.06;36.84;100851.47;5043709;28;20049;-69
2023/01/14 06:52:45;;;;;;;4.20;2.03;;;;;;;22.14;36.65;100846.84;5039691;28;20045;-69
2023/01/14 06:55:11;;;;;;;4.20;1.73;;;;;;;22.25;36.39;100843.63;5035076;28;20515;-69
2023/01/14 06:57:37;;;;;;;5.03;1.60;;;;;;;22.42;36.28;100833.53;5032966;28;20072;-69
2023/01/14 07:00:03;;;;;;;5.05;1.73;;;;;;;22.68;35.98;100819.56;5027014;28;20369;-69
2023/01/14 07:02:29;;;;;;;2.60;1.23;;;;;;;22.76;35.58;100824.69;5045936;28;20724;-70
2023/01/14 07:04:54;;;;;;;3.97;1.65;;;;;;;22.75;35.82;100814.28;5042275;28;20041;-69
2023/01/14 07:07:20;;;;;;;3.92;1.50;;;;;;;22.61;36.19;100819.53;5048704;28;20510;-70
2023/01/14 07:09:45;;;;;;;1.80;1.30;;;;;;;22.52;36.22;100814.59;5043865;28;20045;-69
2023/01/14 07:12:11;;;;;;;5.53;1.92;;;;;;;22.45;36.44;100806.63;5034161;28;20048;-69
2023/01/14 07:14:36;;;;;;;2.92;1.83;;;;;;;22.33;36.78;100802.06;5041312;28;20078;-70
2023/01/14 07:17:03;;;;;;;5.13;1.77;;;;;;;22.19;36.82;100812.59;5044893;28;20044;-70
2023/01/14 07:19:28;;;;;;;4.45;1.67;;;;;;;22.20;37.05;100806.28;5040129;28;20045;-70
2023/01/14 07:21:54;;;;;;;3.50;1.88;;;;;;;22.12;36.92;100806.44;5038410;28;20047;-70
2023/01/14 07:24:19;;;;;;;5.20;1.70;;;;;;;22.02;37.14;100798.78;5031349;28;20033;-69
2023/01/14 07:26:45;;;;;;;2.60;1.40;;;;;;;21.96;37.56;100791.63;5030879;28;20041;-69
2023/01/14 07:29:11;;;;;;;2.67;1.48;;;;;;;21.99;37.30;100796.53;5028127;28;20041;-69
2023/01/14 07:31:36;;;;;;;4.15;2.15;;;;;;;21.94;37.26;100791.00;5037717;28;20037;-69
2023/01/14 07:34:02;;;;;;;2.70;1.52;;;;;;;21.91;37.82;100788.75;5030049;28;20502;-70
2023/01/14 07:36:27;;;;;;;4.50;1.98;;;;;;;21.87;37.30;100790.13;5035030;28;20130;-70
2023/01/14 07:38:53;;;;;;;2.60;1.73;;;;;;;21.78;37.79;100778.06;5040097;28;20040;-70
2023/01/14 07:41:20;;;;;;;3.97;1.83;;;;;;;21.73;37.89;100777.00;5034321;28;20041;-70
2023/01/14 07:43:45;;;;;;;4.10;1.88;;;;;;;21.64;37.71;100753.28;5030590;28;20049;-70
2023/01/14 07:46:11;;;;;;;4.10;1.98;;;;;;;21.74;37.96;100760.91;5029930;28;20046;-70
2023/01/14 07:48:37;;;;;;;3.45;1.77;;;;;;;21.66;37.84;100755.72;5036701;28;20570;-70
2023/01/14 07:51:04;;;;;;;5.20;1.95;;;;;;;21.63;37.98;100740.22;5044892;28;20886;-70
2023/01/14 07:53:29;;;;;;;3.88;1.75;;;;;;;21.56;38.40;100734.06;5034195;28;20079;-70
2023/01/14 07:55:55;;;;;;;5.85;2.15;;;;;;;21.53;37.87;100732.59;5040182;28;20032;-70
2023/01/14 07:58:23;;;;;;;5.40;2.35;;;;;;;21.39;38.18;100715.00;5032538;28;20486;-70
2023/01/14 08:00:49;;;;;;;3.97;1.90;;;;;;;21.34;38.37;100722.69;5042174;28;20037;-70
2023/01/14 08:03:14;;;;;;;5.22;1.85;;;;;;;21.18;38.76;100707.84;5030360;28;20071;-69
2023/01/14 08:05:40;;;;;;;4.38;2.00;;;;;;;21.00;39.06;100702.19;5037226;28;20102;-69
2023/01/14 08:08:06;;;;;;;2.92;1.50;;;;;;;20.88;39.49;100698.44;5038002;28;20049;-69
2023/01/14 08:10:31;;;;;;;4.72;2.10;;;;;;;20.85;39.52;100694.34;5038117;28;20029;-68
2023/01/14 08:12:57;;;;;;;3.40;1.63;;;;;;;20.89;39.62;100687.66;5038922;28;20107;-68
2023/01/14 08:15:23;;;;;;;4.93;2.10;;;;;;;20.81;39.72;100677.19;5032480;28;20044;-68
2023/01/14 08:17:48;;;;;;;4.05;1.95;;;;;;;20.86;39.44;100681.94;5039191;28;20940;-68
2023/01/14 08:20:14;;;;;;;3.15;1.88;;;;;;;20.84;39.59;100668.06;5050509;28;20052;-68
2023/01/14 08:22:39;;;;;;;5.05;1.83;;;;;;;20.77;39.66;100668.00;5035088;28;20095;-68
2023/01/14 08:25:06;;;;;;;3.38;1.90;;;;;;;20.77;39.55;100657.41;5033181;28;20096;-68
2023/01/14 08:27:32;;;;;;;4.60;2.28;;;;;;;20.74;39.66;100650.69;5034840;28;20029;-68
2023/01/14 08:29:57;;;;;;;3.60;1.70;;;;;;;20.75;39.84;100646.19;5028388;28;20044;-68
2023/01/14 08:32:24;;;;;;;5.70;1.98;;;;;;;20.68;39.83;100642.69;5033250;28;20041;-69
2023/01/14 08:34:49;;;;;;;3.13;1.67;;;;;;;20.62;39.84;100623.06;5037840;28;20032;-69
2023/01/14 08:37:15;;;;;;;4.75;1.77;;;;;;;20.57;39.80;100616.72;5035995;28;20053;-69
2023/01/14 08:39:40;;;;;;;2.47;1.58;;;;;;;20.69;39.71;100615.22;5023254;28;20021;-69
2023/01/14 08:42:06;;;;;;;5.97;2.20;;;;;;;20.71;39.82;100608.72;5034714;28;20049;-69
2023/01/14 08:44:33;;;;;;;5.70;1.92;;;;;;;20.63;40.04;100605.38;5033847;28;20041;-69
2023/01/14 08:46:58;;;;;;;4.82;2.05;;;;;;;20.66;40.02;100597.91;5040713;28;20231;-68
2023/01/14 08:49:24;;;;;;;6.63;2.30;;;;;;;20.67;39.87;100596.88;5046510;28;20048;-69
2023/01/14 08:51:49;;;;;;;4.75;2.10;;;;;;;20.68;39.85;100584.47;5039004;28;20045;-69
2023/01/14 08:54:15;;;;;;;2.75;1.73;;;;;;;20.67;39.93;100577.56;5043083;28;20091;-69
2023/01/14 08:56:40;;;;;;;3.67;1.95;;;;;;;20.76;39.70;100568.44;5033487;28;20052;-69
2023/01/14 08:59:07;;;;;;;4.45;2.20;;;;;;;20.79;39.54;100566.22;5041250;28;20091;-69
2023/01/14 09:01:32;;;;;;;4.20;2.10;;;;;;;20.71;39.63;100555.81;5037352;28;20036;-69
2023/01/14 09:04:00;;;;;;;3.95;2.20;;;;;;;20.71;39.74;100552.34;5036433;28;20633;-69
2023/01/14 09:06:26;;;;;;;4.10;1.92;;;;;;;20.78;39.58;100546.06;5029478;28;20134;-69
2023/01/14 09:17:17;;;;;;;4.35;2.03;;;;;;;21.98;37.24;100526.28;5033913;28;20639;-68
2023/01/14 09:19:50;;;;;;;3.05;1.77;;;;;;;22.15;37.21;100518.81;5036390;28;20036;-68
2023/01/14 09:22:25;;;;;;;5.47;1.98;;;;;;;22.08;37.11;100502.06;5039932;28;20404;-68
2023/01/14 09:24:55;;;;;;;3.45;1.90;;;;;;;22.01;37.31;100497.53;5028905;28;20045;-68
2023/01/14 09:27:30;;;;;;;4.95;2.10;;;;;;;22.00;37.54;100493.25;5015079;28;20168;-69
2023/01/14 09:29:55;;;;;;;4.68;2.10;;;;;;;21.92;37.57;100488.16;5025726;28;21620;-69
2023/01/14 09:32:21;;;;;;;4.43;2.25;;;;;;;21.82;37.59;100476.31;5030781;28;20036;-69
2023/01/14 09:34:49;;;;;;;2.67;1.60;;;;;;;21.76;37.74;100467.34;5030895;28;20083;-69
2023/01/14 09:37:21;;;;;;;5.25;1.92;;;;;;;21.78;37.63;100465.28;5026042;28;20080;-69
2023/01/14 09:39:47;;;;;;;5.43;2.65;;;;;;;21.69;37.94;100439.97;5034163;28;20059;-69
2023/01/14 09:42:16;;;;;;;5.25;2.33;;;;;;;21.66;37.97;100435.91;5035538;28;20067;-69
2023/01/14 09:44:43;;;;;;;5.47;1.90;;;;;;;21.65;38.27;100428.16;5034571;28;20064;-69
2023/01/14 09:47:17;;;;;;;4.80;2.17;;;;;;;21.48;38.53;100417.13;5037612;28;20135;-69
2023/01/14 09:49:44;;;;;;;3.92;1.90;;;;;;;21.40;38.67;100414.66;5042228;28;20021;-69
2023/01/14 09:52:34;;;;;;;4.45;1.90;;;;;;;21.22;38.92;100394.00;5045054;28;20116;-69
2023/01/14 09:55:15;;;;;;;5.28;2.10;;;;;;;21.29;38.77;100375.50;5035599;28;20804;-69
2023/01/14 09:57:40;;;;;;;4.28;1.80;;;;;;;20.91;39.50;100372.50;5037260;28;20483;-69
2023/01/14 10:00:44;;;;;;;4.93;2.33;;;;;;;20.90;39.71;100373.53;5036679;28;20123;-69
2023/01/14 10:03:15;;;;;;;4.60;2.30;;;;;;;20.76;39.83;100364.69;5032164;28;20094;-69
2023/01/14 10:05:44;;;;;;;4.97;1.75;;;;;;;20.73;40.05;100344.75;5035471;28;20088;-69
2023/01/14 10:08:14;;;;;;;4.30;2.15;;;;;;;20.54;40.07;100313.72;5034131;28;20033;-69
2023/01/14 10:10:41;;;;;;;;;;;;;;;20.64;40.21;100313.34;5028824;28;20072;-69
2023/01/14 10:13:15;;;;;;;3.67;2.13;;;;;;;20.65;40.08;100310.53;5043536;28;19917;-69
2023/01/14 10:15:53;;;;;;;4.65;1.70;;;;;;;20.60;40.18;100301.53;5037382;28;20037;-69
2023/01/14 10:18:21;;;;;;;3.92;1.73;;;;;;;20.58;40.09;100283.22;5036140;28;20021;-69
2023/01/14 10:20:57;;;;;;;4.30;1.75;;;;;;;20.52;40.47;100284.84;5036769;28;20033;-69
2023/01/14 10:23:43;;;;;;;4.53;1.90;;;;;;;20.47;40.44;100265.28;5036179;28;20037;-69
2023/01/14 10:26:14;;;;;;;4.25;1.80;;;;;;;20.41;40.38;100247.53;5041250;28;20059;-68
2023/01/14 10:28:41;;;;;;;4.63;1.70;;;;;;;20.40;40.35;100212.31;5035538;28;20068;-69
2023/01/14 10:31:13;;;;;;;3.58;1.55;;;;;;;20.45;40.45;100230.25;5034088;28;20098;-69
2023/01/14 10:33:39;;;;;;;3.88;1.67;;;;;;;20.40;40.46;100220.25;5026306;28;20037;-69
2023/01/14 10:36:11;;;;;;;4.70;2.08;;;;;;;20.37;40.56;100211.91;5034582;28;20057;-68
2023/01/14 10:38:40;;;;;;;3.85;1.50;;;;;;;20.47;40.34;100188.59;5033980;28;20505;-69
2023/01/14 10:41:07;;;;;;;5.97;2.30;;;;;;;20.42;40.60;100181.22;5027510;28;20547;-69
2023/01/14 10:43:38;;;;;;;4.35;1.80;;;;;;;20.41;40.52;100184.06;5031708;28;20094;-69
2023/01/14 10:46:05;;;;;;;4.95;1.92;;;;;;;20.33;40.75;100174.47;5033807;28;20061;-69
2023/01/14 10:49:00;;;;;;;3.40;1.83;;;;;;;20.33;40.53;100147.22;5031029;28;20127;-69
2023/01/14 10:51:47;;;;;;;3.75;1.73;;;;;;;20.30;40.52;100134.41;5042086;28;20053;-69
2023/01/14 10:54:14;;;;;;;3.85;1.70;;;;;;;20.28;40.77;100139.03;5036901;28;20047;-69
2023/01/14 10:56:45;;;;;;;4.28;1.50;;;;;;;20.30;40.69;100126.47;5038965;28;20037;-69
2023/01/14 10:59:36;;;;;;;4.05;1.90;;;;;;;20.27;40.79;100118.91;5036022;28;20033;-69
2023/01/14 11:02:02;;;;;;;5.88;2.30;;;;;;;20.29;40.71;100107.16;5031361;28;20041;-69
2023/01/14 11:04:34;;;;;;;4.25;1.55;;;;;;;20.27;40.73;100095.94;5032151;28;20037;-69
2023/01/14 11:07:09;;;;;;;4.30;1.98;;;;;;;20.26;40.67;100106.69;5030646;28;20037;-68
2023/01/14 11:09:36;;;;;;;2.60;1.45;;;;;;;20.32;40.54;100092.69;5035425;28;20037;-69
2023/01/14 11:12:03;;;;;;;3.75;1.60;;;;;;;20.20;40.84;100076.59;5037159;28;20063;-69
2023/01/14 11:14:35;;;;;;;5.10;1.92;;;;;;;20.19;40.88;100061.75;5030880;28;20049;-69
2023/01/14 11:17:20;;;;;;;2.45;1.13;;;;;;;20.24;40.75;100035.53;5032617;28;20082;-69
2023/01/14 11:19:46;;;;;;;2.75;1.33;;;;;;;20.18;40.99;100028.41;5041300;28;20522;-69
2023/01/14 11:22:12;;;;;;;4.13;1.40;;;;;;;20.20;40.80;100010.53;5036298;28;20033;-69
2023/01/14 11:24:44;;;;;;;2.83;1.30;;;;;;;20.17;41.01;100003.81;5038074;28;20087;-69
2023/01/14 11:27:16;;;;;;;2.90;1.65;;;;;;;20.20;40.96;100005.22;5038999;28;20056;-69
2023/01/14 11:29:50;;;;;;;2.72;1.33;;;;;;;20.24;40.93;99987.94;5031463;28;20099;-69
2023/01/14 11:32:24;;;;;;;3.45;1.50;;;;;;;20.20;40.89;99971.69;5028239;28;20056;-69
2023/01/14 11:35:17;;;;;;;3.35;1.52;;;;;;;20.13;40.96;99959.50;5038130;28;20047;-69
2023/01/14 11:37:47;;;;;;;2.38;1.80;;;;;;;20.15;40.91;99944.22;5027004;28;20691;-69
2023/01/14 11:43:19;;;;;;;2.10;1.35;;;;;;;20.14;40.83;99900.31;5034281;28;20041;-69
2023/01/14 11:45:45;;;;;;;2.58;1.58;;;;;;;20.11;40.92;99896.25;5035513;28;20024;-69
2023/01/14 11:48:28;;;;;;;2.90;1.25;;;;;;;20.11;41.01;99885.69;5038582;28;20040;-68
2023/01/14 11:51:03;;;;;;;3.03;1.70;;;;;;;20.46;40.27;99878.31;5036131;28;20032;-69
2023/01/14 11:54:03;;;;;;;2.72;1.08;;;;;;;21.58;37.81;99853.25;5032484;28;20037;-69
2023/01/14 11:56:34;;;;;;;;;;;;;;;22.10;36.99;99839.81;5007923;28;20103;-68
2023/01/14 11:59:28;;;;;;;2.05;1.40;;;;;;;22.37;36.51;99824.44;5040495;28;19916;-68
2023/01/14 12:02:22;;;;;;;4.30;1.23;;;;;;;22.56;36.55;99810.97;5032249;28;20074;-68
2023/01/14 12:05:01;;;;;;;1.88;1.48;;;;;;;22.56;36.51;99789.72;5041928;28;20048;-68
2023/01/14 12:07:29;;;;;;;1.63;1.00;;;;;;;22.47;36.61;99787.63;5030274;28;20038;-69
2023/01/14 12:10:16;;;;;;;1.63;1.10;;;;;;;22.33;37.12;99775.53;5029254;28;20093;-69
2023/01/14 12:18:53;;;;;;;2.83;1.48;;;;;;;21.95;37.44;99745.50;5034690;28;20696;-68
2023/01/14 12:21:25;;;;;;;1.27;0.52;;;;;;;21.92;37.99;99739.84;5042645;28;20859;-69
2023/01/14 12:24:03;;;;;;;1.13;1.00;;;;;;;21.85;37.93;99721.34;5029719;28;20135;-75